WetterOnline ( https://www.wetteronline.de )

Wetter aktuell San Filippo Superiore

Aktuelles Wetter: Messina (51m)

6-stündlich | Neueste Meldungen
Ortszeit Temperatur Wetter
Mo, 08.03. 7:00 12.2° C leicht bewölkt
Mo, 08.03. 1:00 13.0° C wolkig
So, 07.03. 19:00 13.2° C leicht bewölkt
So, 07.03. 13:00 15.4° C leicht bewölkt
So, 07.03. 7:00 11.0° C fast wolkenlos
So, 07.03. 1:00 13.6° C leicht bewölkt
Sa, 06.03. 19:00 14.0° C wolkig
Sa, 06.03. 13:00 18.0° C wolkig
Ortszeit Temperatur Wetter
Mo, 08.03. 10:00 14.4° C wolkig
Mo, 08.03. 9:55 14° C leicht bewölkt
Mo, 08.03. 9:00 13.0° C leicht bewölkt
Mo, 08.03. 8:55 13° C leicht bewölkt
Mo, 08.03. 8:00 12.2° C leicht bewölkt
Mo, 08.03. 7:55 12° C leicht bewölkt
Mo, 08.03. 7:00 12.2° C leicht bewölkt
Mo, 08.03. 6:55 12° C -
Mo, 08.03. 6:00 12.2° C wolkig
Ortszeit Relative Feuchte Sichtweite
Mo, 08.03. 7:00 76% 20 km
Mo, 08.03. 1:00 75% 16 km
So, 07.03. 19:00 73% 14 km
So, 07.03. 13:00 57% 16 km
So, 07.03. 7:00 68% 14 km
So, 07.03. 1:00 62% 12 km
Sa, 06.03. 19:00 75% 16 km
Sa, 06.03. 13:00 23% 20 km
Ortszeit Relative Feuchte Sichtweite
Mo, 08.03. 10:00 68% 10 km
Mo, 08.03. 9:55 72% >10 km
Mo, 08.03. 9:00 72% 20 km
Mo, 08.03. 8:55 72% >10 km
Mo, 08.03. 8:00 76% 20 km
Mo, 08.03. 7:55 77% >10 km
Mo, 08.03. 7:00 76% 20 km
Mo, 08.03. 6:55 77% >10 km
Mo, 08.03. 6:00 75% 10 km
Ortszeit Niederschlagsmenge Niederschlagsart
Mo, 08.03. 7:00 0.0 l/m2 in 12 Std. -
Mo, 08.03. 1:00 0.0 l/m2 in 6 Std. -
So, 07.03. 19:00 0.0 l/m2 in 12 Std. -
So, 07.03. 13:00 0.0 l/m2 in 6 Std. -
So, 07.03. 7:00 0.0 l/m2 in 12 Std. -
So, 07.03. 1:00 0.0 l/m2 in 6 Std. -
Sa, 06.03. 19:00 0.0 l/m2 in 12 Std. -
Sa, 06.03. 13:00 0.0 l/m2 in 6 Std. -
Ortszeit Niederschlagsmenge Niederschlagsart
Mo, 08.03. 10:00 keine Meldung -
Mo, 08.03. 9:55 keine Meldung -
Mo, 08.03. 9:00 keine Meldung -
Mo, 08.03. 8:55 keine Meldung -
Mo, 08.03. 8:00 keine Meldung -
Mo, 08.03. 7:55 keine Meldung -
Mo, 08.03. 7:00 keine Meldung -
Mo, 08.03. 6:55 keine Meldung -
Mo, 08.03. 6:00 keine Meldung -
Ortszeit Stärke Spitze Richtung
km/h Bft. km/h Grad Sektor
Mo, 08.03. 7:00 15 3 - 210° SW
Mo, 08.03. 1:00 13 3 - 200° S
So, 07.03. 19:00 13 3 - 220° SW
So, 07.03. 13:00 19 3 - 200° S
So, 07.03. 7:00 2 1 - 200° S
So, 07.03. 1:00 9 2 - 210° SW
Sa, 06.03. 19:00 4 1 - 130° SO
Sa, 06.03. 13:00 11 2 - 360° N
Ortszeit Stärke Spitze Richtung
km/h Bft. km/h Grad Sektor
Mo, 08.03. 10:00 24 4 - 200° S
Mo, 08.03. 9:55 24 4 46 200° S
Mo, 08.03. 9:00 19 3 - 220° SW
Mo, 08.03. 8:55 19 3 39 220° SW
Mo, 08.03. 8:00 17 3 - 220° SW
Mo, 08.03. 7:55 17 3 - 220° SW
Mo, 08.03. 7:00 15 3 - 210° SW
Mo, 08.03. 6:55 15 3 - 210° SW
Mo, 08.03. 6:00 15 3 - 210° SW
Ortszeit Untergrenze Bedeckung Gattung
total tief tief mittel hoch
Mo, 08.03. 7:00 2400 m 6/8 5/8 - Ac Cs
Mo, 08.03. 1:00 600 m 6/8 4/8 Sc As -
So, 07.03. 19:00 600 m 3/8 3/8 Sc - -
So, 07.03. 13:00 750 m 3/8 2/8 Sc - Ci
So, 07.03. 7:00 900 m 1/8 1/8 Sc - -
So, 07.03. 1:00 900 m 5/8 3/8 Sc As -
Sa, 06.03. 19:00 900 m 6/8 4/8 Sc As -
Sa, 06.03. 13:00 1200 m 6/8 1/8 Sc Ac -
Ortszeit Bedeckungsgrad in Achtel und Wolkenuntergrenze
Mo, 08.03. 10:00 2(900m)
Mo, 08.03. 9:55 1-2(900m)
Mo, 08.03. 9:00 1(900m)
Mo, 08.03. 8:55 1-2(900m)
Mo, 08.03. 8:00 1(900m) 3(2400m)
Mo, 08.03. 7:55 1-2(900m)
Mo, 08.03. 7:00 5(2400m) 6(6000m)
Mo, 08.03. 6:55 keine Wolken(unter 1500 m)
Mo, 08.03. 6:00 1(900m) 6(2400m)
Ortszeit Luftdruck NN (hPa) Tendenz (hPa in 3 Std.)
Mo, 08.03. 7:00 1017 0,0
Mo, 08.03. 1:00 1020 - 0,9
So, 07.03. 19:00 1021 - 0,5
So, 07.03. 13:00 1024 - 1,0
So, 07.03. 7:00 1024 - 0,1
So, 07.03. 1:00 1024 + 0,2
Sa, 06.03. 19:00 1023 + 1,0
Sa, 06.03. 13:00 1022 + 0,7
Ortszeit Luftdruck NN (hPa) Tendenz (hPa in 3 Std.)
Mo, 08.03. 10:00 1016 - 0,2
Mo, 08.03. 9:55 1016 keine Meldung
Mo, 08.03. 9:00 1016 - 0,7
Mo, 08.03. 8:55 1015 keine Meldung
Mo, 08.03. 8:00 1016 - 0,1
Mo, 08.03. 7:55 1016 keine Meldung
Mo, 08.03. 7:00 1017 0,0
Mo, 08.03. 6:55 1016 keine Meldung
Mo, 08.03. 6:00 1017 - 1,0
Ortszeit Schneehöhe (cm)
Mo, 08.03. 7:00 0
Mo, 08.03. 1:00 -
So, 07.03. 19:00 -
So, 07.03. 13:00 -
So, 07.03. 7:00 0
So, 07.03. 1:00 -
Sa, 06.03. 19:00 -
Sa, 06.03. 13:00 -
Ortszeit Schneehöhe (cm)
Mo, 08.03. 10:00 -
Mo, 08.03. 9:55 -
Mo, 08.03. 9:00 -
Mo, 08.03. 8:55 -
Mo, 08.03. 8:00 -
Mo, 08.03. 7:55 -
Mo, 08.03. 7:00 0
Mo, 08.03. 6:55 -
Mo, 08.03. 6:00 -
Link zu dieser Seite / Seite empfehlen

Das Wetter in ...